CPX262 Details

Departure: General Edward Lawrence Logan International Airport (KBOS)
Arrival: Kansas City International Airport (KMCI)
Route: HYLND5 HYLND CAM Q822 GONZZ Q29 DORET DJB J60 JOT J26 IRK BQS6
Notes: METROAIR CARGO SUPPORT


Current Weather Information
KBOS 221249Z 02024G34KT 2 1/2SM R04R/5500VP6000FT -RA BR FEW006 BKN010 OVC060 04/02 A2928 RMK AO2 PK WND 02036/1233 P0002
KMCI 221153Z 30007KT 10SM CLR 04/M01 A3017 RMK AO2 SLP219 T00391011 10078 20033 53002